sensor_id;sensor_type;location;lat;lon;timestamp;P1;durP1;ratioP1;P2;durP2;ratioP2
2602;SDS011;1311;47.966;7.958;2023-06-19T00:00:05;7.03;;;6.40;;
2602;SDS011;1311;47.966;7.958;2023-06-19T00:02:40;8.67;;;7.87;;
2602;SDS011;1311;47.966;7.958;2023-06-19T00:05:08;8.27;;;7.43;;
2602;SDS011;1311;47.966;7.958;2023-06-19T00:07:35;9.50;;;8.60;;
2602;SDS011;1311;47.966;7.958;2023-06-19T00:10:03;8.37;;;7.57;;
2602;SDS011;1311;47.966;7.958;2023-06-19T00:12:30;8.50;;;7.70;;
2602;SDS011;1311;47.966;7.958;2023-06-19T00:14:56;8.87;;;7.97;;
2602;SDS011;1311;47.966;7.958;2023-06-19T00:17:25;8.67;;;7.13;;
2602;SDS011;1311;47.966;7.958;2023-06-19T00:19:52;7.50;;;6.80;;
2602;SDS011;1311;47.966;7.958;2023-06-19T00:22:19;7.47;;;6.20;;
2602;SDS011;1311;47.966;7.958;2023-06-19T00:24:46;6.60;;;5.93;;
2602;SDS011;1311;47.966;7.958;2023-06-19T00:27:13;6.30;;;5.70;;
2602;SDS011;1311;47.966;7.958;2023-06-19T00:29:40;6.67;;;5.97;;
2602;SDS011;1311;47.966;7.958;2023-06-19T00:32:07;5.50;;;5.00;;
2602;SDS011;1311;47.966;7.958;2023-06-19T00:34:35;5.47;;;4.97;;
2602;SDS011;1311;47.966;7.958;2023-06-19T00:37:03;6.20;;;5.60;;
2602;SDS011;1311;47.966;7.958;2023-06-19T00:39:30;5.20;;;4.70;;
2602;SDS011;1311;47.966;7.958;2023-06-19T00:41:57;5.20;;;4.67;;
2602;SDS011;1311;47.966;7.958;2023-06-19T00:44:24;5.10;;;4.60;;
2602;SDS011;1311;47.966;7.958;2023-06-19T00:46:51;5.80;;;5.00;;
2602;SDS011;1311;47.966;7.958;2023-06-19T00:49:23;5.83;;;5.33;;
2602;SDS011;1311;47.966;7.958;2023-06-19T00:51:52;5.80;;;5.30;;
2602;SDS011;1311;47.966;7.958;2023-06-19T00:54:19;6.47;;;5.87;;
2602;SDS011;1311;47.966;7.958;2023-06-19T00:56:46;5.43;;;4.93;;
2602;SDS011;1311;47.966;7.958;2023-06-19T00:59:14;5.47;;;4.80;;
2602;SDS011;1311;47.966;7.958;2023-06-19T01:01:43;5.30;;;4.80;;
2602;SDS011;1311;47.966;7.958;2023-06-19T01:04:10;5.60;;;5.10;;
2602;SDS011;1311;47.966;7.958;2023-06-19T01:06:38;6.50;;;5.90;;
2602;SDS011;1311;47.966;7.958;2023-06-19T01:09:12;5.70;;;5.20;;
2602;SDS011;1311;47.966;7.958;2023-06-19T01:11:43;5.43;;;5.00;;
2602;SDS011;1311;47.966;7.958;2023-06-19T01:14:14;6.70;;;6.00;;
2602;SDS011;1311;47.966;7.958;2023-06-19T01:16:44;5.63;;;5.07;;
2602;SDS011;1311;47.966;7.958;2023-06-19T01:19:13;6.50;;;6.00;;
2602;SDS011;1311;47.966;7.958;2023-06-19T01:21:43;5.40;;;4.90;;
2602;SDS011;1311;47.966;7.958;2023-06-19T01:24:12;5.37;;;4.87;;
2602;SDS011;1311;47.966;7.958;2023-06-19T01:26:39;6.03;;;4.77;;
2602;SDS011;1311;47.966;7.958;2023-06-19T01:29:06;7.23;;;5.50;;
2602;SDS011;1311;47.966;7.958;2023-06-19T01:31:35;6.43;;;5.80;;
2602;SDS011;1311;47.966;7.958;2023-06-19T01:34:08;6.23;;;5.73;;
2602;SDS011;1311;47.966;7.958;2023-06-19T01:36:36;7.20;;;6.50;;
2602;SDS011;1311;47.966;7.958;2023-06-19T01:39:03;6.90;;;6.30;;
2602;SDS011;1311;47.966;7.958;2023-06-19T01:41:32;7.53;;;6.50;;
2602;SDS011;1311;47.966;7.958;2023-06-19T01:44:00;6.40;;;5.90;;
2602;SDS011;1311;47.966;7.958;2023-06-19T01:46:27;6.73;;;6.03;;
2602;SDS011;1311;47.966;7.958;2023-06-19T01:48:54;6.03;;;5.53;;
2602;SDS011;1311;47.966;7.958;2023-06-19T01:51:21;9.63;;;5.93;;
2602;SDS011;1311;47.966;7.958;2023-06-19T01:53:48;6.40;;;5.80;;
2602;SDS011;1311;47.966;7.958;2023-06-19T01:56:15;7.20;;;5.70;;
2602;SDS011;1311;47.966;7.958;2023-06-19T01:58:43;5.90;;;5.30;;
2602;SDS011;1311;47.966;7.958;2023-06-19T02:01:10;10.33;;;5.60;;
2602;SDS011;1311;47.966;7.958;2023-06-19T02:03:36;6.57;;;5.47;;
2602;SDS011;1311;47.966;7.958;2023-06-19T02:06:03;5.07;;;4.60;;
2602;SDS011;1311;47.966;7.958;2023-06-19T02:08:30;5.77;;;4.83;;
2602;SDS011;1311;47.966;7.958;2023-06-19T02:10:57;4.47;;;4.03;;
2602;SDS011;1311;47.966;7.958;2023-06-19T02:13:24;7.13;;;5.03;;
2602;SDS011;1311;47.966;7.958;2023-06-19T02:15:52;5.80;;;5.20;;
2602;SDS011;1311;47.966;7.958;2023-06-19T02:18:18;7.80;;;5.77;;
2602;SDS011;1311;47.966;7.958;2023-06-19T02:20:45;5.77;;;5.27;;
2602;SDS011;1311;47.966;7.958;2023-06-19T02:23:12;6.37;;;4.83;;
2602;SDS011;1311;47.966;7.958;2023-06-19T02:25:39;6.70;;;5.70;;
2602;SDS011;1311;47.966;7.958;2023-06-19T02:28:05;5.60;;;5.00;;
2602;SDS011;1311;47.966;7.958;2023-06-19T02:30:32;5.80;;;5.20;;
2602;SDS011;1311;47.966;7.958;2023-06-19T02:33:00;5.37;;;4.87;;
2602;SDS011;1311;47.966;7.958;2023-06-19T02:35:27;5.00;;;4.50;;
2602;SDS011;1311;47.966;7.958;2023-06-19T02:37:54;4.90;;;4.40;;
2602;SDS011;1311;47.966;7.958;2023-06-19T02:40:21;4.93;;;4.43;;
2602;SDS011;1311;47.966;7.958;2023-06-19T02:42:48;5.07;;;4.57;;
2602;SDS011;1311;47.966;7.958;2023-06-19T02:45:15;5.93;;;5.33;;
2602;SDS011;1311;47.966;7.958;2023-06-19T02:47:41;5.27;;;4.70;;
2602;SDS011;1311;47.966;7.958;2023-06-19T02:50:10;6.17;;;5.30;;
2602;SDS011;1311;47.966;7.958;2023-06-19T02:52:36;5.97;;;5.33;;
2602;SDS011;1311;47.966;7.958;2023-06-19T02:55:04;6.20;;;5.50;;
2602;SDS011;1311;47.966;7.958;2023-06-19T02:57:32;5.47;;;4.87;;
2602;SDS011;1311;47.966;7.958;2023-06-19T02:59:59;6.33;;;5.53;;
2602;SDS011;1311;47.966;7.958;2023-06-19T03:02:26;5.47;;;4.97;;
2602;SDS011;1311;47.966;7.958;2023-06-19T03:04:52;6.13;;;5.53;;
2602;SDS011;1311;47.966;7.958;2023-06-19T03:07:20;5.93;;;5.33;;
2602;SDS011;1311;47.966;7.958;2023-06-19T03:09:47;6.03;;;5.53;;
2602;SDS011;1311;47.966;7.958;2023-06-19T03:12:14;6.00;;;5.40;;
2602;SDS011;1311;47.966;7.958;2023-06-19T03:14:41;6.23;;;4.87;;
2602;SDS011;1311;47.966;7.958;2023-06-19T03:17:07;5.63;;;5.13;;
2602;SDS011;1311;47.966;7.958;2023-06-19T03:19:34;6.53;;;5.77;;
2602;SDS011;1311;47.966;7.958;2023-06-19T03:22:01;6.13;;;5.50;;
2602;SDS011;1311;47.966;7.958;2023-06-19T03:24:29;6.43;;;5.83;;
2602;SDS011;1311;47.966;7.958;2023-06-19T03:26:56;8.93;;;6.50;;
2602;SDS011;1311;47.966;7.958;2023-06-19T03:29:23;8.17;;;6.30;;
2602;SDS011;1311;47.966;7.958;2023-06-19T03:31:50;6.80;;;6.03;;
2602;SDS011;1311;47.966;7.958;2023-06-19T03:34:16;8.03;;;6.53;;
2602;SDS011;1311;47.966;7.958;2023-06-19T03:36:43;7.80;;;6.47;;
2602;SDS011;1311;47.966;7.958;2023-06-19T03:39:10;8.43;;;7.60;;
2602;SDS011;1311;47.966;7.958;2023-06-19T03:41:38;8.50;;;7.03;;
2602;SDS011;1311;47.966;7.958;2023-06-19T03:44:05;8.37;;;6.47;;
2602;SDS011;1311;47.966;7.958;2023-06-19T03:46:31;7.40;;;6.43;;
2602;SDS011;1311;47.966;7.958;2023-06-19T03:48:58;8.33;;;6.77;;
2602;SDS011;1311;47.966;7.958;2023-06-19T03:51:25;7.40;;;6.53;;
2602;SDS011;1311;47.966;7.958;2023-06-19T03:53:54;9.67;;;7.27;;
2602;SDS011;1311;47.966;7.958;2023-06-19T03:56:20;7.03;;;6.33;;
2602;SDS011;1311;47.966;7.958;2023-06-19T03:58:48;7.83;;;7.03;;
2602;SDS011;1311;47.966;7.958;2023-06-19T04:01:15;9.27;;;6.43;;
2602;SDS011;1311;47.966;7.958;2023-06-19T04:03:42;8.10;;;7.30;;
2602;SDS011;1311;47.966;7.958;2023-06-19T04:06:09;8.53;;;6.50;;
2602;SDS011;1311;47.966;7.958;2023-06-19T04:08:35;7.07;;;6.40;;
2602;SDS011;1311;47.966;7.958;2023-06-19T04:11:02;7.03;;;6.43;;
2602;SDS011;1311;47.966;7.958;2023-06-19T04:13:29;7.23;;;6.53;;
2602;SDS011;1311;47.966;7.958;2023-06-19T04:15:57;7.27;;;5.50;;
2602;SDS011;1311;47.966;7.958;2023-06-19T04:18:24;7.33;;;6.30;;
2602;SDS011;1311;47.966;7.958;2023-06-19T04:20:52;6.17;;;5.57;;
2602;SDS011;1311;47.966;7.958;2023-06-19T04:23:19;6.70;;;6.10;;
2602;SDS011;1311;47.966;7.958;2023-06-19T04:25:45;7.33;;;6.53;;
2602;SDS011;1311;47.966;7.958;2023-06-19T04:28:12;6.60;;;6.00;;
2602;SDS011;1311;47.966;7.958;2023-06-19T04:30:39;7.60;;;5.50;;
2602;SDS011;1311;47.966;7.958;2023-06-19T04:33:07;5.47;;;4.97;;
2602;SDS011;1311;47.966;7.958;2023-06-19T04:35:34;5.70;;;5.20;;
2602;SDS011;1311;47.966;7.958;2023-06-19T04:38:04;7.30;;;5.47;;
2602;SDS011;1311;47.966;7.958;2023-06-19T04:40:31;6.80;;;6.10;;
2602;SDS011;1311;47.966;7.958;2023-06-19T04:42:58;7.43;;;5.77;;
2602;SDS011;1311;47.966;7.958;2023-06-19T04:45:25;7.20;;;6.60;;
2602;SDS011;1311;47.966;7.958;2023-06-19T04:47:52;6.57;;;6.07;;
2602;SDS011;1311;47.966;7.958;2023-06-19T04:50:20;6.53;;;5.93;;
2602;SDS011;1311;47.966;7.958;2023-06-19T04:52:47;7.67;;;6.87;;
2602;SDS011;1311;47.966;7.958;2023-06-19T04:55:15;6.90;;;6.30;;
2602;SDS011;1311;47.966;7.958;2023-06-19T04:57:42;7.77;;;7.07;;
2602;SDS011;1311;47.966;7.958;2023-06-19T05:00:09;8.80;;;7.57;;
2602;SDS011;1311;47.966;7.958;2023-06-19T05:02:37;7.10;;;6.40;;
2602;SDS011;1311;47.966;7.958;2023-06-19T05:05:08;8.10;;;7.37;;
2602;SDS011;1311;47.966;7.958;2023-06-19T05:07:36;7.47;;;6.80;;
2602;SDS011;1311;47.966;7.958;2023-06-19T05:10:03;8.63;;;6.47;;
2602;SDS011;1311;47.966;7.958;2023-06-19T05:12:30;7.17;;;6.43;;
2602;SDS011;1311;47.966;7.958;2023-06-19T05:14:57;6.53;;;5.93;;
2602;SDS011;1311;47.966;7.958;2023-06-19T05:17:24;6.70;;;6.10;;
2602;SDS011;1311;47.966;7.958;2023-06-19T05:19:50;6.10;;;5.53;;
2602;SDS011;1311;47.966;7.958;2023-06-19T05:22:17;7.83;;;6.40;;
2602;SDS011;1311;47.966;7.958;2023-06-19T05:24:47;6.23;;;5.70;;
2602;SDS011;1311;47.966;7.958;2023-06-19T05:27:14;8.87;;;6.50;;
2602;SDS011;1311;47.966;7.958;2023-06-19T05:29:41;6.67;;;5.97;;
2602;SDS011;1311;47.966;7.958;2023-06-19T05:32:08;6.43;;;5.93;;
2602;SDS011;1311;47.966;7.958;2023-06-19T05:34:34;6.40;;;5.80;;
2602;SDS011;1311;47.966;7.958;2023-06-19T05:37:01;5.67;;;5.17;;
2602;SDS011;1311;47.966;7.958;2023-06-19T05:39:28;6.43;;;5.83;;
2602;SDS011;1311;47.966;7.958;2023-06-19T05:41:56;8.40;;;6.50;;
2602;SDS011;1311;47.966;7.958;2023-06-19T05:44:23;7.50;;;6.40;;
2602;SDS011;1311;47.966;7.958;2023-06-19T05:46:50;5.60;;;5.07;;
2602;SDS011;1311;47.966;7.958;2023-06-19T05:49:17;5.93;;;5.43;;
2602;SDS011;1311;47.966;7.958;2023-06-19T05:51:44;6.10;;;5.50;;
2602;SDS011;1311;47.966;7.958;2023-06-19T05:54:10;6.50;;;5.90;;
2602;SDS011;1311;47.966;7.958;2023-06-19T05:56:37;5.90;;;5.30;;
2602;SDS011;1311;47.966;7.958;2023-06-19T05:59:06;5.30;;;4.90;;
2602;SDS011;1311;47.966;7.958;2023-06-19T06:01:32;5.40;;;5.00;;
2602;SDS011;1311;47.966;7.958;2023-06-19T06:03:59;5.27;;;4.87;;
2602;SDS011;1311;47.966;7.958;2023-06-19T06:06:26;7.20;;;6.30;;
2602;SDS011;1311;47.966;7.958;2023-06-19T06:08:53;5.67;;;5.27;;
2602;SDS011;1311;47.966;7.958;2023-06-19T06:11:21;5.93;;;5.43;;
2602;SDS011;1311;47.966;7.958;2023-06-19T06:13:48;5.67;;;5.17;;
2602;SDS011;1311;47.966;7.958;2023-06-19T06:16:16;5.33;;;4.93;;
2602;SDS011;1311;47.966;7.958;2023-06-19T06:18:44;5.33;;;4.93;;
2602;SDS011;1311;47.966;7.958;2023-06-19T06:21:10;5.50;;;5.10;;
2602;SDS011;1311;47.966;7.958;2023-06-19T06:23:38;5.87;;;5.27;;
2602;SDS011;1311;47.966;7.958;2023-06-19T06:26:06;5.70;;;5.30;;
2602;SDS011;1311;47.966;7.958;2023-06-19T06:28:33;5.60;;;5.20;;
2602;SDS011;1311;47.966;7.958;2023-06-19T06:31:00;5.70;;;5.20;;
2602;SDS011;1311;47.966;7.958;2023-06-19T06:33:28;5.50;;;5.10;;
2602;SDS011;1311;47.966;7.958;2023-06-19T06:35:57;6.20;;;5.70;;
2602;SDS011;1311;47.966;7.958;2023-06-19T06:38:24;5.60;;;5.20;;
2602;SDS011;1311;47.966;7.958;2023-06-19T06:40:51;5.80;;;5.30;;
2602;SDS011;1311;47.966;7.958;2023-06-19T06:43:18;5.87;;;5.13;;
2602;SDS011;1311;47.966;7.958;2023-06-19T06:45:45;6.00;;;5.50;;
2602;SDS011;1311;47.966;7.958;2023-06-19T06:48:11;5.27;;;4.87;;
2602;SDS011;1311;47.966;7.958;2023-06-19T06:50:39;5.37;;;4.97;;
2602;SDS011;1311;47.966;7.958;2023-06-19T06:53:07;5.80;;;5.30;;
2602;SDS011;1311;47.966;7.958;2023-06-19T06:55:34;5.70;;;5.30;;
2602;SDS011;1311;47.966;7.958;2023-06-19T06:58:00;5.50;;;4.93;;
2602;SDS011;1311;47.966;7.958;2023-06-19T07:00:28;5.30;;;4.90;;
2602;SDS011;1311;47.966;7.958;2023-06-19T07:02:55;6.37;;;5.87;;
2602;SDS011;1311;47.966;7.958;2023-06-19T07:05:22;5.60;;;5.10;;
2602;SDS011;1311;47.966;7.958;2023-06-19T07:07:50;5.27;;;4.87;;
2602;SDS011;1311;47.966;7.958;2023-06-19T07:10:16;7.90;;;5.30;;
2602;SDS011;1311;47.966;7.958;2023-06-19T07:12:44;5.27;;;4.87;;
2602;SDS011;1311;47.966;7.958;2023-06-19T07:15:11;6.40;;;5.40;;
2602;SDS011;1311;47.966;7.958;2023-06-19T07:17:38;6.03;;;5.50;;
2602;SDS011;1311;47.966;7.958;2023-06-19T07:20:05;5.03;;;4.63;;
2602;SDS011;1311;47.966;7.958;2023-06-19T07:22:32;5.90;;;5.40;;
2602;SDS011;1311;47.966;7.958;2023-06-19T07:25:00;5.53;;;5.03;;
2602;SDS011;1311;47.966;7.958;2023-06-19T07:27:28;5.73;;;5.23;;
2602;SDS011;1311;47.966;7.958;2023-06-19T07:29:55;5.20;;;4.80;;
2602;SDS011;1311;47.966;7.958;2023-06-19T07:32:22;5.07;;;4.63;;
2602;SDS011;1311;47.966;7.958;2023-06-19T07:34:49;5.43;;;5.03;;
2602;SDS011;1311;47.966;7.958;2023-06-19T07:37:16;4.80;;;4.40;;
2602;SDS011;1311;47.966;7.958;2023-06-19T07:39:43;5.90;;;5.40;;
2602;SDS011;1311;47.966;7.958;2023-06-19T07:42:12;4.90;;;4.50;;
2602;SDS011;1311;47.966;7.958;2023-06-19T07:44:39;4.70;;;4.30;;
2602;SDS011;1311;47.966;7.958;2023-06-19T07:47:06;4.70;;;4.30;;
2602;SDS011;1311;47.966;7.958;2023-06-19T07:49:34;5.50;;;5.10;;
2602;SDS011;1311;47.966;7.958;2023-06-19T07:52:01;6.03;;;5.13;;
2602;SDS011;1311;47.966;7.958;2023-06-19T07:54:27;7.73;;;5.10;;
2602;SDS011;1311;47.966;7.958;2023-06-19T07:56:54;5.43;;;5.03;;
2602;SDS011;1311;47.966;7.958;2023-06-19T07:59:22;5.37;;;4.97;;
2602;SDS011;1311;47.966;7.958;2023-06-19T08:01:49;5.90;;;4.87;;
2602;SDS011;1311;47.966;7.958;2023-06-19T08:04:16;5.30;;;4.33;;
2602;SDS011;1311;47.966;7.958;2023-06-19T08:06:42;6.00;;;4.60;;
2602;SDS011;1311;47.966;7.958;2023-06-19T08:09:09;5.00;;;4.60;;
2602;SDS011;1311;47.966;7.958;2023-06-19T08:11:36;5.03;;;4.63;;
2602;SDS011;1311;47.966;7.958;2023-06-19T08:14:03;5.03;;;4.20;;
2602;SDS011;1311;47.966;7.958;2023-06-19T08:16:31;5.27;;;4.87;;
2602;SDS011;1311;47.966;7.958;2023-06-19T08:18:57;5.00;;;4.50;;
2602;SDS011;1311;47.966;7.958;2023-06-19T08:21:24;5.20;;;4.70;;
2602;SDS011;1311;47.966;7.958;2023-06-19T08:23:51;5.33;;;4.93;;
2602;SDS011;1311;47.966;7.958;2023-06-19T08:26:18;5.80;;;5.30;;
2602;SDS011;1311;47.966;7.958;2023-06-19T08:28:45;6.10;;;5.50;;
2602;SDS011;1311;47.966;7.958;2023-06-19T08:31:12;6.17;;;5.67;;
2602;SDS011;1311;47.966;7.958;2023-06-19T08:33:40;5.80;;;5.20;;
2602;SDS011;1311;47.966;7.958;2023-06-19T08:36:07;5.40;;;5.00;;
2602;SDS011;1311;47.966;7.958;2023-06-19T08:38:34;6.03;;;5.60;;
2602;SDS011;1311;47.966;7.958;2023-06-19T08:41:01;6.33;;;5.73;;
2602;SDS011;1311;47.966;7.958;2023-06-19T08:43:27;6.13;;;5.63;;
2602;SDS011;1311;47.966;7.958;2023-06-19T08:46:11;5.50;;;5.10;;
2602;SDS011;1311;47.966;7.958;2023-06-19T08:48:44;6.70;;;6.10;;
2602;SDS011;1311;47.966;7.958;2023-06-19T08:51:11;6.20;;;5.60;;
2602;SDS011;1311;47.966;7.958;2023-06-19T08:53:43;6.10;;;5.50;;
2602;SDS011;1311;47.966;7.958;2023-06-19T08:56:11;6.47;;;5.97;;
2602;SDS011;1311;47.966;7.958;2023-06-19T08:58:38;6.20;;;5.70;;
2602;SDS011;1311;47.966;7.958;2023-06-19T09:01:05;6.13;;;5.63;;
2602;SDS011;1311;47.966;7.958;2023-06-19T09:03:32;6.70;;;5.87;;
2602;SDS011;1311;47.966;7.958;2023-06-19T09:06:03;7.30;;;6.80;;
2602;SDS011;1311;47.966;7.958;2023-06-19T09:08:32;6.00;;;5.60;;
2602;SDS011;1311;47.966;7.958;2023-06-19T09:11:00;5.90;;;5.40;;
2602;SDS011;1311;47.966;7.958;2023-06-19T09:13:27;6.10;;;5.60;;
2602;SDS011;1311;47.966;7.958;2023-06-19T09:15:58;6.40;;;5.80;;
2602;SDS011;1311;47.966;7.958;2023-06-19T09:18:28;6.17;;;5.67;;
2602;SDS011;1311;47.966;7.958;2023-06-19T09:20:55;5.90;;;5.40;;
2602;SDS011;1311;47.966;7.958;2023-06-19T09:23:24;5.87;;;5.37;;
2602;SDS011;1311;47.966;7.958;2023-06-19T09:25:51;5.60;;;5.10;;
2602;SDS011;1311;47.966;7.958;2023-06-19T09:28:20;5.70;;;5.20;;
2602;SDS011;1311;47.966;7.958;2023-06-19T09:30:52;6.00;;;5.40;;
2602;SDS011;1311;47.966;7.958;2023-06-19T09:33:19;5.13;;;4.63;;
2602;SDS011;1311;47.966;7.958;2023-06-19T09:35:46;5.20;;;4.80;;
2602;SDS011;1311;47.966;7.958;2023-06-19T09:38:14;4.70;;;4.30;;
2602;SDS011;1311;47.966;7.958;2023-06-19T09:40:45;5.53;;;5.03;;
2602;SDS011;1311;47.966;7.958;2023-06-19T09:43:13;5.23;;;4.73;;
2602;SDS011;1311;47.966;7.958;2023-06-19T09:45:44;5.90;;;5.43;;
2602;SDS011;1311;47.966;7.958;2023-06-19T09:48:14;6.00;;;5.50;;
2602;SDS011;1311;47.966;7.958;2023-06-19T09:50:45;5.70;;;5.27;;
2602;SDS011;1311;47.966;7.958;2023-06-19T09:53:15;6.13;;;5.63;;
2602;SDS011;1311;47.966;7.958;2023-06-19T09:55:42;5.80;;;5.30;;
2602;SDS011;1311;47.966;7.958;2023-06-19T09:58:10;5.30;;;4.90;;
2602;SDS011;1311;47.966;7.958;2023-06-19T10:00:37;5.70;;;5.23;;
2602;SDS011;1311;47.966;7.958;2023-06-19T10:03:04;6.03;;;5.53;;
2602;SDS011;1311;47.966;7.958;2023-06-19T10:05:37;5.03;;;4.63;;
2602;SDS011;1311;47.966;7.958;2023-06-19T10:08:04;5.33;;;4.60;;
2602;SDS011;1311;47.966;7.958;2023-06-19T10:10:31;4.83;;;4.53;;
2602;SDS011;1311;47.966;7.958;2023-06-19T10:12:59;5.80;;;5.30;;
2602;SDS011;1311;47.966;7.958;2023-06-19T10:15:41;5.20;;;4.80;;
2602;SDS011;1311;47.966;7.958;2023-06-19T10:18:12;5.83;;;5.33;;
2602;SDS011;1311;47.966;7.958;2023-06-19T10:20:41;5.93;;;5.43;;
2602;SDS011;1311;47.966;7.958;2023-06-19T10:23:10;5.00;;;4.60;;
2602;SDS011;1311;47.966;7.958;2023-06-19T10:25:38;5.40;;;5.00;;
2602;SDS011;1311;47.966;7.958;2023-06-19T10:28:15;5.80;;;5.30;;
2602;SDS011;1311;47.966;7.958;2023-06-19T10:30:44;5.10;;;4.60;;
2602;SDS011;1311;47.966;7.958;2023-06-19T10:33:10;5.60;;;5.10;;
2602;SDS011;1311;47.966;7.958;2023-06-19T10:35:37;5.77;;;5.37;;
2602;SDS011;1311;47.966;7.958;2023-06-19T10:38:05;5.83;;;5.33;;
2602;SDS011;1311;47.966;7.958;2023-06-19T10:40:33;6.73;;;6.13;;
2602;SDS011;1311;47.966;7.958;2023-06-19T10:43:01;5.47;;;5.00;;
2602;SDS011;1311;47.966;7.958;2023-06-19T10:45:28;5.67;;;5.17;;
2602;SDS011;1311;47.966;7.958;2023-06-19T10:47:57;5.30;;;4.90;;
2602;SDS011;1311;47.966;7.958;2023-06-19T10:50:27;5.70;;;5.20;;
2602;SDS011;1311;47.966;7.958;2023-06-19T10:52:54;6.03;;;5.33;;
2602;SDS011;1311;47.966;7.958;2023-06-19T10:55:21;5.73;;;5.23;;
2602;SDS011;1311;47.966;7.958;2023-06-19T10:57:48;5.97;;;5.37;;
2602;SDS011;1311;47.966;7.958;2023-06-19T11:00:25;5.63;;;5.23;;
2602;SDS011;1311;47.966;7.958;2023-06-19T11:02:53;5.87;;;5.37;;
2602;SDS011;1311;47.966;7.958;2023-06-19T11:05:22;5.77;;;5.27;;
2602;SDS011;1311;47.966;7.958;2023-06-19T11:07:53;5.90;;;5.40;;
2602;SDS011;1311;47.966;7.958;2023-06-19T11:10:21;5.80;;;5.30;;
2602;SDS011;1311;47.966;7.958;2023-06-19T11:12:48;6.37;;;5.77;;
2602;SDS011;1311;47.966;7.958;2023-06-19T11:15:15;6.00;;;5.47;;
2602;SDS011;1311;47.966;7.958;2023-06-19T11:17:42;6.27;;;5.77;;
2602;SDS011;1311;47.966;7.958;2023-06-19T11:20:10;6.73;;;6.17;;
2602;SDS011;1311;47.966;7.958;2023-06-19T11:22:40;5.53;;;5.13;;
2602;SDS011;1311;47.966;7.958;2023-06-19T11:25:08;6.97;;;5.50;;
2602;SDS011;1311;47.966;7.958;2023-06-19T11:27:38;6.40;;;5.90;;
2602;SDS011;1311;47.966;7.958;2023-06-19T11:30:06;6.10;;;5.50;;
2602;SDS011;1311;47.966;7.958;2023-06-19T11:32:34;5.87;;;5.27;;
2602;SDS011;1311;47.966;7.958;2023-06-19T11:35:06;7.40;;;6.60;;
2602;SDS011;1311;47.966;7.958;2023-06-19T11:37:34;6.57;;;6.03;;
2602;SDS011;1311;47.966;7.958;2023-06-19T11:40:02;6.10;;;5.60;;
2602;SDS011;1311;47.966;7.958;2023-06-19T11:42:51;6.33;;;5.83;;
2602;SDS011;1311;47.966;7.958;2023-06-19T11:45:18;5.80;;;5.40;;
2602;SDS011;1311;47.966;7.958;2023-06-19T11:47:48;6.50;;;5.90;;
2602;SDS011;1311;47.966;7.958;2023-06-19T11:50:15;6.47;;;5.87;;
2602;SDS011;1311;47.966;7.958;2023-06-19T11:52:44;5.63;;;5.23;;
2602;SDS011;1311;47.966;7.958;2023-06-19T11:55:12;6.17;;;5.67;;
2602;SDS011;1311;47.966;7.958;2023-06-19T11:57:39;5.97;;;5.47;;
2602;SDS011;1311;47.966;7.958;2023-06-19T12:00:12;6.13;;;5.60;;
2602;SDS011;1311;47.966;7.958;2023-06-19T12:02:40;5.80;;;5.37;;
2602;SDS011;1311;47.966;7.958;2023-06-19T12:05:07;9.30;;;5.53;;
2602;SDS011;1311;47.966;7.958;2023-06-19T12:07:35;6.20;;;5.53;;
2602;SDS011;1311;47.966;7.958;2023-06-19T12:10:02;8.03;;;5.77;;
2602;SDS011;1311;47.966;7.958;2023-06-19T12:12:36;6.63;;;6.10;;
2602;SDS011;1311;47.966;7.958;2023-06-19T12:15:04;5.97;;;5.37;;
2602;SDS011;1311;47.966;7.958;2023-06-19T12:17:31;6.30;;;5.70;;
2602;SDS011;1311;47.966;7.958;2023-06-19T12:19:58;6.00;;;5.50;;
2602;SDS011;1311;47.966;7.958;2023-06-19T12:22:26;5.90;;;5.43;;
2602;SDS011;1311;47.966;7.958;2023-06-19T12:24:53;5.63;;;5.13;;
2602;SDS011;1311;47.966;7.958;2023-06-19T12:27:20;5.80;;;5.30;;
2602;SDS011;1311;47.966;7.958;2023-06-19T12:29:48;5.63;;;5.23;;
2602;SDS011;1311;47.966;7.958;2023-06-19T12:32:14;5.93;;;5.20;;
2602;SDS011;1311;47.966;7.958;2023-06-19T12:34:41;5.37;;;4.97;;
2602;SDS011;1311;47.966;7.958;2023-06-19T12:37:11;6.47;;;5.63;;
2602;SDS011;1311;47.966;7.958;2023-06-19T12:39:40;5.27;;;4.87;;
2602;SDS011;1311;47.966;7.958;2023-06-19T12:42:07;6.47;;;5.30;;
2602;SDS011;1311;47.966;7.958;2023-06-19T12:44:33;5.77;;;5.37;;
2602;SDS011;1311;47.966;7.958;2023-06-19T12:47:01;5.93;;;5.40;;
2602;SDS011;1311;47.966;7.958;2023-06-19T12:49:29;6.00;;;5.40;;
2602;SDS011;1311;47.966;7.958;2023-06-19T12:51:56;5.40;;;5.00;;
2602;SDS011;1311;47.966;7.958;2023-06-19T12:54:23;5.63;;;5.13;;
2602;SDS011;1311;47.966;7.958;2023-06-19T12:56:50;5.53;;;5.10;;
2602;SDS011;1311;47.966;7.958;2023-06-19T12:59:17;6.20;;;5.40;;
2602;SDS011;1311;47.966;7.958;2023-06-19T13:01:44;6.00;;;5.30;;
2602;SDS011;1311;47.966;7.958;2023-06-19T13:04:12;5.17;;;4.77;;
2602;SDS011;1311;47.966;7.958;2023-06-19T13:06:40;5.60;;;5.10;;
2602;SDS011;1311;47.966;7.958;2023-06-19T13:09:06;5.47;;;5.07;;
2602;SDS011;1311;47.966;7.958;2023-06-19T13:11:34;5.67;;;5.20;;
2602;SDS011;1311;47.966;7.958;2023-06-19T13:14:01;6.83;;;5.60;;
2602;SDS011;1311;47.966;7.958;2023-06-19T13:16:27;6.10;;;5.67;;
2602;SDS011;1311;47.966;7.958;2023-06-19T13:18:56;6.20;;;5.70;;
2602;SDS011;1311;47.966;7.958;2023-06-19T13:21:24;5.87;;;5.40;;
2602;SDS011;1311;47.966;7.958;2023-06-19T13:23:51;5.97;;;5.40;;
2602;SDS011;1311;47.966;7.958;2023-06-19T13:26:18;6.10;;;5.60;;
2602;SDS011;1311;47.966;7.958;2023-06-19T13:28:44;5.80;;;5.30;;
2602;SDS011;1311;47.966;7.958;2023-06-19T13:31:11;6.40;;;5.80;;
2602;SDS011;1311;47.966;7.958;2023-06-19T13:33:38;6.30;;;4.97;;
2602;SDS011;1311;47.966;7.958;2023-06-19T13:36:05;5.97;;;5.47;;
2602;SDS011;1311;47.966;7.958;2023-06-19T13:38:33;5.93;;;5.53;;
2602;SDS011;1311;47.966;7.958;2023-06-19T13:41:00;6.33;;;5.83;;
2602;SDS011;1311;47.966;7.958;2023-06-19T13:43:26;5.67;;;5.27;;
2602;SDS011;1311;47.966;7.958;2023-06-19T13:45:54;5.87;;;5.37;;
2602;SDS011;1311;47.966;7.958;2023-06-19T13:48:21;5.73;;;5.33;;
2602;SDS011;1311;47.966;7.958;2023-06-19T13:50:47;5.77;;;5.27;;
2602;SDS011;1311;47.966;7.958;2023-06-19T13:53:14;6.47;;;5.93;;
2602;SDS011;1311;47.966;7.958;2023-06-19T13:55:42;5.10;;;4.70;;
2602;SDS011;1311;47.966;7.958;2023-06-19T13:58:09;6.10;;;5.50;;
2602;SDS011;1311;47.966;7.958;2023-06-19T14:00:35;6.80;;;5.53;;
2602;SDS011;1311;47.966;7.958;2023-06-19T14:03:02;5.33;;;4.83;;
2602;SDS011;1311;47.966;7.958;2023-06-19T14:05:31;6.20;;;5.70;;
2602;SDS011;1311;47.966;7.958;2023-06-19T14:07:58;6.27;;;5.67;;
2602;SDS011;1311;47.966;7.958;2023-06-19T14:10:25;6.57;;;5.97;;
2602;SDS011;1311;47.966;7.958;2023-06-19T14:12:53;6.03;;;5.37;;
2602;SDS011;1311;47.966;7.958;2023-06-19T14:15:20;5.83;;;5.33;;
2602;SDS011;1311;47.966;7.958;2023-06-19T14:17:47;5.90;;;5.40;;
2602;SDS011;1311;47.966;7.958;2023-06-19T14:20:14;6.10;;;5.60;;
2602;SDS011;1311;47.966;7.958;2023-06-19T14:22:40;5.83;;;5.43;;
2602;SDS011;1311;47.966;7.958;2023-06-19T14:25:07;5.67;;;5.27;;
2602;SDS011;1311;47.966;7.958;2023-06-19T14:27:34;5.93;;;5.43;;
2602;SDS011;1311;47.966;7.958;2023-06-19T14:30:03;6.10;;;5.60;;
2602;SDS011;1311;47.966;7.958;2023-06-19T14:32:33;5.43;;;5.03;;
2602;SDS011;1311;47.966;7.958;2023-06-19T14:35:01;6.47;;;5.83;;
2602;SDS011;1311;47.966;7.958;2023-06-19T14:37:28;6.20;;;5.63;;
2602;SDS011;1311;47.966;7.958;2023-06-19T14:39:55;5.60;;;5.10;;
2602;SDS011;1311;47.966;7.958;2023-06-19T14:42:21;7.27;;;6.67;;
2602;SDS011;1311;47.966;7.958;2023-06-19T14:44:48;6.50;;;6.00;;
2602;SDS011;1311;47.966;7.958;2023-06-19T14:47:16;5.13;;;4.70;;
2602;SDS011;1311;47.966;7.958;2023-06-19T14:49:43;7.47;;;5.90;;
2602;SDS011;1311;47.966;7.958;2023-06-19T14:52:10;6.37;;;5.87;;
2602;SDS011;1311;47.966;7.958;2023-06-19T14:54:37;5.97;;;5.50;;
2602;SDS011;1311;47.966;7.958;2023-06-19T14:57:03;6.50;;;5.90;;
2602;SDS011;1311;47.966;7.958;2023-06-19T14:59:31;5.97;;;5.47;;
2602;SDS011;1311;47.966;7.958;2023-06-19T15:01:57;6.10;;;5.60;;
2602;SDS011;1311;47.966;7.958;2023-06-19T15:04:25;6.23;;;5.73;;
2602;SDS011;1311;47.966;7.958;2023-06-19T15:06:52;7.40;;;6.80;;
2602;SDS011;1311;47.966;7.958;2023-06-19T15:09:19;6.60;;;6.10;;
2602;SDS011;1311;47.966;7.958;2023-06-19T15:11:46;6.10;;;5.60;;
2602;SDS011;1311;47.966;7.958;2023-06-19T15:14:12;6.10;;;5.70;;
2602;SDS011;1311;47.966;7.958;2023-06-19T15:16:39;6.10;;;5.70;;